sensor_id;sensor_type;location;lat;lon;timestamp;pressure;altitude;pressure_sealevel;temperature;humidity
56006;BME280;41888;44.696;10.522;2023-07-28T00:00:14;100269.19;;;20.20;100.00
56006;BME280;41888;44.696;10.522;2023-07-28T00:02:40;100263.81;;;20.10;100.00
56006;BME280;41888;44.696;10.522;2023-07-28T00:05:06;100264.63;;;20.00;100.00
56006;BME280;41888;44.696;10.522;2023-07-28T00:07:33;100267.31;;;20.05;100.00
56006;BME280;41888;44.696;10.522;2023-07-28T00:10:02;100275.16;;;20.12;100.00
56006;BME280;41888;44.696;10.522;2023-07-28T00:12:28;100273.53;;;19.96;100.00
56006;BME280;41888;44.696;10.522;2023-07-28T00:14:54;100268.13;;;20.01;100.00
56006;BME280;41888;44.696;10.522;2023-07-28T00:17:20;100269.22;;;20.00;100.00
56006;BME280;41888;44.696;10.522;2023-07-28T00:19:46;100270.28;;;19.89;100.00
56006;BME280;41888;44.696;10.522;2023-07-28T00:22:13;100259.78;;;19.77;100.00
56006;BME280;41888;44.696;10.522;2023-07-28T00:24:39;100259.22;;;19.70;100.00
56006;BME280;41888;44.696;10.522;2023-07-28T00:27:05;100255.44;;;19.46;100.00
56006;BME280;41888;44.696;10.522;2023-07-28T00:29:31;100253.50;;;19.46;100.00
56006;BME280;41888;44.696;10.522;2023-07-28T00:31:57;100249.44;;;19.38;100.00
56006;BME280;41888;44.696;10.522;2023-07-28T00:34:24;100238.38;;;19.40;100.00
56006;BME280;41888;44.696;10.522;2023-07-28T00:36:50;100248.13;;;19.51;100.00
56006;BME280;41888;44.696;10.522;2023-07-28T00:39:16;100237.63;;;19.55;100.00
56006;BME280;41888;44.696;10.522;2023-07-28T00:41:42;100237.28;;;19.41;100.00
56006;BME280;41888;44.696;10.522;2023-07-28T00:44:08;100238.44;;;19.50;100.00
56006;BME280;41888;44.696;10.522;2023-07-28T00:46:34;100235.47;;;19.82;100.00
56006;BME280;41888;44.696;10.522;2023-07-28T00:49:01;100233.84;;;19.86;100.00
56006;BME280;41888;44.696;10.522;2023-07-28T00:51:29;100234.13;;;19.90;100.00
56006;BME280;41888;44.696;10.522;2023-07-28T00:53:56;100235.19;;;19.99;100.00
56006;BME280;41888;44.696;10.522;2023-07-28T00:56:25;100226.56;;;20.07;100.00
56006;BME280;41888;44.696;10.522;2023-07-28T00:58:51;100224.13;;;20.00;100.00
56006;BME280;41888;44.696;10.522;2023-07-28T01:01:18;100225.75;;;19.96;100.00
56006;BME280;41888;44.696;10.522;2023-07-28T01:03:44;100222.50;;;19.84;100.00
56006;BME280;41888;44.696;10.522;2023-07-28T01:06:27;100230.91;;;19.88;100.00
56006;BME280;41888;44.696;10.522;2023-07-28T01:09:09;100224.13;;;19.85;100.00
56006;BME280;41888;44.696;10.522;2023-07-28T01:11:38;100223.88;;;19.71;100.00
56006;BME280;41888;44.696;10.522;2023-07-28T01:14:04;100221.69;;;19.53;100.00
56006;BME280;41888;44.696;10.522;2023-07-28T01:16:30;100217.88;;;19.39;100.00
56006;BME280;41888;44.696;10.522;2023-07-28T01:18:56;100207.09;;;19.44;100.00
56006;BME280;41888;44.696;10.522;2023-07-28T01:21:26;100214.97;;;19.56;100.00
56006;BME280;41888;44.696;10.522;2023-07-28T01:24:15;100211.97;;;19.57;100.00
56006;BME280;41888;44.696;10.522;2023-07-28T01:26:47;100227.34;;;19.47;100.00
56006;BME280;41888;44.696;10.522;2023-07-28T01:29:14;100230.56;;;19.44;100.00
56006;BME280;41888;44.696;10.522;2023-07-28T01:31:42;100234.63;;;19.46;100.00
56006;BME280;41888;44.696;10.522;2023-07-28T01:34:08;100228.66;;;19.44;100.00
56006;BME280;41888;44.696;10.522;2023-07-28T01:36:34;100236.56;;;19.61;100.00
56006;BME280;41888;44.696;10.522;2023-07-28T01:39:00;100235.47;;;19.72;100.00
56006;BME280;41888;44.696;10.522;2023-07-28T01:41:26;100232.50;;;19.68;100.00
56006;BME280;41888;44.696;10.522;2023-07-28T01:43:53;100229.28;;;19.71;100.00
56006;BME280;41888;44.696;10.522;2023-07-28T01:46:21;100222.25;;;19.70;100.00
56006;BME280;41888;44.696;10.522;2023-07-28T01:48:48;100224.41;;;19.68;100.00
56006;BME280;41888;44.696;10.522;2023-07-28T01:51:14;100230.34;;;19.60;100.00
56006;BME280;41888;44.696;10.522;2023-07-28T01:53:40;100234.66;;;19.61;100.00
56006;BME280;41888;44.696;10.522;2023-07-28T01:56:06;100221.16;;;19.56;100.00
56006;BME280;41888;44.696;10.522;2023-07-28T01:58:32;100213.81;;;19.41;100.00
56006;BME280;41888;44.696;10.522;2023-07-28T02:00:59;100224.38;;;19.48;100.00
56006;BME280;41888;44.696;10.522;2023-07-28T02:03:25;100221.09;;;19.41;100.00
56006;BME280;41888;44.696;10.522;2023-07-28T02:05:51;100224.13;;;19.50;100.00
56006;BME280;41888;44.696;10.522;2023-07-28T02:08:18;100218.72;;;19.50;100.00
56006;BME280;41888;44.696;10.522;2023-07-28T02:10:45;100218.13;;;19.27;100.00
56006;BME280;41888;44.696;10.522;2023-07-28T02:13:11;100221.44;;;19.50;100.00
56006;BME280;41888;44.696;10.522;2023-07-28T02:15:37;100214.63;;;19.42;100.00
56006;BME280;41888;44.696;10.522;2023-07-28T02:18:03;100221.38;;;19.39;100.00
56006;BME280;41888;44.696;10.522;2023-07-28T02:20:30;100224.06;;;19.34;100.00
56006;BME280;41888;44.696;10.522;2023-07-28T02:22:56;100217.31;;;19.37;100.00
56006;BME280;41888;44.696;10.522;2023-07-28T02:25:23;100224.88;;;19.35;100.00
56006;BME280;41888;44.696;10.522;2023-07-28T02:27:49;100223.53;;;19.37;100.00
56006;BME280;41888;44.696;10.522;2023-07-28T02:30:15;100214.38;;;19.44;100.00
56006;BME280;41888;44.696;10.522;2023-07-28T02:32:41;100211.13;;;19.36;100.00
56006;BME280;41888;44.696;10.522;2023-07-28T02:35:08;100217.88;;;19.44;100.00
56006;BME280;41888;44.696;10.522;2023-07-28T02:37:34;100233.03;;;19.50;100.00
56006;BME280;41888;44.696;10.522;2023-07-28T02:40:00;100220.56;;;19.34;100.00
56006;BME280;41888;44.696;10.522;2023-07-28T02:42:26;100216.00;;;19.39;100.00
56006;BME280;41888;44.696;10.522;2023-07-28T02:44:52;100216.22;;;19.23;100.00
56006;BME280;41888;44.696;10.522;2023-07-28T02:47:19;100213.53;;;19.28;100.00
56006;BME280;41888;44.696;10.522;2023-07-28T02:49:45;100210.25;;;19.06;100.00
56006;BME280;41888;44.696;10.522;2023-07-28T02:52:11;100207.50;;;18.90;100.00
56006;BME280;41888;44.696;10.522;2023-07-28T02:54:37;100205.38;;;18.92;100.00
56006;BME280;41888;44.696;10.522;2023-07-28T02:57:04;100195.09;;;18.89;100.00
56006;BME280;41888;44.696;10.522;2023-07-28T02:59:30;100195.03;;;18.74;100.00
56006;BME280;41888;44.696;10.522;2023-07-28T03:01:56;100189.69;;;18.89;100.00
56006;BME280;41888;44.696;10.522;2023-07-28T03:04:23;100188.59;;;18.75;100.00
56006;BME280;41888;44.696;10.522;2023-07-28T03:06:49;100198.50;;;18.60;100.00
56006;BME280;41888;44.696;10.522;2023-07-28T03:09:15;100211.56;;;18.46;100.00
56006;BME280;41888;44.696;10.522;2023-07-28T03:11:43;100208.88;;;18.46;100.00
56006;BME280;41888;44.696;10.522;2023-07-28T03:14:09;100196.94;;;18.27;100.00
56006;BME280;41888;44.696;10.522;2023-07-28T03:16:35;100208.78;;;18.26;100.00
56006;BME280;41888;44.696;10.522;2023-07-28T03:19:02;100214.13;;;18.21;100.00
56006;BME280;41888;44.696;10.522;2023-07-28T03:21:30;100228.09;;;18.12;100.00
56006;BME280;41888;44.696;10.522;2023-07-28T03:23:57;100227.19;;;17.97;100.00
56006;BME280;41888;44.696;10.522;2023-07-28T03:26:23;100222.84;;;17.96;100.00
56006;BME280;41888;44.696;10.522;2023-07-28T03:28:49;100219.25;;;18.17;100.00
56006;BME280;41888;44.696;10.522;2023-07-28T03:31:16;100219.41;;;18.05;100.00
56006;BME280;41888;44.696;10.522;2023-07-28T03:33:42;100216.50;;;17.75;100.00
56006;BME280;41888;44.696;10.522;2023-07-28T03:36:08;100207.94;;;17.83;100.00
56006;BME280;41888;44.696;10.522;2023-07-28T03:38:34;100227.88;;;17.87;100.00
56006;BME280;41888;44.696;10.522;2023-07-28T03:41:00;100235.59;;;17.73;100.00
56006;BME280;41888;44.696;10.522;2023-07-28T03:43:27;100216.59;;;17.85;100.00
56006;BME280;41888;44.696;10.522;2023-07-28T03:45:53;100220.47;;;18.04;100.00
56006;BME280;41888;44.696;10.522;2023-07-28T03:48:19;100224.78;;;18.00;100.00
56006;BME280;41888;44.696;10.522;2023-07-28T03:50:45;100233.59;;;17.91;100.00
56006;BME280;41888;44.696;10.522;2023-07-28T03:53:11;100230.03;;;17.85;100.00
56006;BME280;41888;44.696;10.522;2023-07-28T03:55:37;100223.91;;;17.95;100.00
56006;BME280;41888;44.696;10.522;2023-07-28T03:58:04;100230.22;;;18.10;100.00
56006;BME280;41888;44.696;10.522;2023-07-28T04:00:31;100224.94;;;18.26;100.00
56006;BME280;41888;44.696;10.522;2023-07-28T04:02:58;100221.16;;;18.22;100.00
56006;BME280;41888;44.696;10.522;2023-07-28T04:05:24;100229.41;;;18.10;100.00
56006;BME280;41888;44.696;10.522;2023-07-28T04:07:50;100225.38;;;18.07;100.00
56006;BME280;41888;44.696;10.522;2023-07-28T04:10:16;100229.72;;;18.13;100.00
56006;BME280;41888;44.696;10.522;2023-07-28T04:12:42;100233.59;;;18.33;100.00
56006;BME280;41888;44.696;10.522;2023-07-28T04:15:09;100243.06;;;18.40;100.00
56006;BME280;41888;44.696;10.522;2023-07-28T04:17:35;100243.91;;;18.46;100.00
56006;BME280;41888;44.696;10.522;2023-07-28T04:20:01;100247.78;;;18.55;100.00
56006;BME280;41888;44.696;10.522;2023-07-28T04:22:28;100236.53;;;18.68;100.00
56006;BME280;41888;44.696;10.522;2023-07-28T04:24:54;100243.31;;;18.76;100.00
56006;BME280;41888;44.696;10.522;2023-07-28T04:27:20;100248.47;;;18.87;100.00
56006;BME280;41888;44.696;10.522;2023-07-28T04:29:46;100250.09;;;18.93;100.00
56006;BME280;41888;44.696;10.522;2023-07-28T04:32:12;100250.97;;;19.14;100.00
56006;BME280;41888;44.696;10.522;2023-07-28T04:34:39;100255.53;;;19.04;100.00
56006;BME280;41888;44.696;10.522;2023-07-28T04:37:05;100246.13;;;19.11;100.00
56006;BME280;41888;44.696;10.522;2023-07-28T04:39:31;100251.75;;;19.05;100.00
56006;BME280;41888;44.696;10.522;2023-07-28T04:41:57;100259.03;;;19.04;100.00
56006;BME280;41888;44.696;10.522;2023-07-28T04:44:23;100253.94;;;19.08;100.00
56006;BME280;41888;44.696;10.522;2023-07-28T04:46:50;100245.84;;;19.03;100.00
56006;BME280;41888;44.696;10.522;2023-07-28T04:49:16;100251.81;;;19.20;100.00
56006;BME280;41888;44.696;10.522;2023-07-28T04:51:43;100255.03;;;19.17;100.00
56006;BME280;41888;44.696;10.522;2023-07-28T04:54:09;100258.78;;;19.11;100.00
56006;BME280;41888;44.696;10.522;2023-07-28T04:56:35;100261.72;;;18.99;100.00
56006;BME280;41888;44.696;10.522;2023-07-28T04:59:01;100251.50;;;19.06;100.00
56006;BME280;41888;44.696;10.522;2023-07-28T05:01:27;100267.94;;;19.10;100.00
56006;BME280;41888;44.696;10.522;2023-07-28T05:03:53;100265.81;;;19.07;100.00
56006;BME280;41888;44.696;10.522;2023-07-28T05:06:20;100260.19;;;19.23;100.00
56006;BME280;41888;44.696;10.522;2023-07-28T05:08:46;100258.41;;;19.49;100.00
56006;BME280;41888;44.696;10.522;2023-07-28T05:11:12;100264.06;;;19.83;100.00
56006;BME280;41888;44.696;10.522;2023-07-28T05:13:38;100264.38;;;19.76;100.00
56006;BME280;41888;44.696;10.522;2023-07-28T05:16:04;100267.03;;;20.22;100.00
56006;BME280;41888;44.696;10.522;2023-07-28T05:18:31;100264.97;;;21.03;97.05
56006;BME280;41888;44.696;10.522;2023-07-28T05:20:57;100270.31;;;21.63;91.45
56006;BME280;41888;44.696;10.522;2023-07-28T05:23:23;100273.09;;;21.53;92.92
56006;BME280;41888;44.696;10.522;2023-07-28T05:25:49;100270.88;;;21.16;95.26
56006;BME280;41888;44.696;10.522;2023-07-28T05:28:15;100280.69;;;20.91;97.74
56006;BME280;41888;44.696;10.522;2023-07-28T05:30:41;100278.88;;;20.72;98.43
56006;BME280;41888;44.696;10.522;2023-07-28T05:33:08;100282.66;;;20.71;99.28
56006;BME280;41888;44.696;10.522;2023-07-28T05:35:34;100282.16;;;20.58;98.51
56006;BME280;41888;44.696;10.522;2023-07-28T05:38:00;100286.50;;;20.29;100.00
56006;BME280;41888;44.696;10.522;2023-07-28T05:40:26;100298.41;;;20.13;100.00
56006;BME280;41888;44.696;10.522;2023-07-28T05:42:52;100303.81;;;19.98;100.00
56006;BME280;41888;44.696;10.522;2023-07-28T05:45:19;100297.31;;;20.04;100.00
56006;BME280;41888;44.696;10.522;2023-07-28T05:47:45;100291.38;;;19.97;100.00
56006;BME280;41888;44.696;10.522;2023-07-28T05:50:11;100285.41;;;19.69;100.00
56006;BME280;41888;44.696;10.522;2023-07-28T05:52:38;100295.13;;;19.75;100.00
56006;BME280;41888;44.696;10.522;2023-07-28T05:55:04;100299.47;;;19.87;100.00
56006;BME280;41888;44.696;10.522;2023-07-28T05:57:31;100303.78;;;19.88;100.00
56006;BME280;41888;44.696;10.522;2023-07-28T05:59:57;100305.13;;;19.70;100.00
56006;BME280;41888;44.696;10.522;2023-07-28T06:02:24;100301.59;;;19.64;100.00
56006;BME280;41888;44.696;10.522;2023-07-28T06:04:50;100305.91;;;19.50;100.00
56006;BME280;41888;44.696;10.522;2023-07-28T06:07:16;100302.81;;;19.31;100.00
56006;BME280;41888;44.696;10.522;2023-07-28T06:09:43;100300.50;;;19.55;100.00
56006;BME280;41888;44.696;10.522;2023-07-28T06:12:09;100291.81;;;19.43;100.00
56006;BME280;41888;44.696;10.522;2023-07-28T06:14:35;100297.78;;;19.50;100.00
56006;BME280;41888;44.696;10.522;2023-07-28T06:17:02;100295.63;;;19.52;100.00
56006;BME280;41888;44.696;10.522;2023-07-28T06:19:28;100299.69;;;19.55;100.00
56006;BME280;41888;44.696;10.522;2023-07-28T06:21:54;100306.47;;;19.77;100.00
56006;BME280;41888;44.696;10.522;2023-07-28T06:24:20;100302.41;;;19.70;100.00
56006;BME280;41888;44.696;10.522;2023-07-28T06:26:46;100302.97;;;19.67;100.00
56006;BME280;41888;44.696;10.522;2023-07-28T06:29:13;100307.84;;;19.90;100.00
56006;BME280;41888;44.696;10.522;2023-07-28T06:31:40;100305.41;;;19.99;100.00
56006;BME280;41888;44.696;10.522;2023-07-28T06:34:06;100304.06;;;19.81;100.00
56006;BME280;41888;44.696;10.522;2023-07-28T06:36:33;100319.19;;;19.97;100.00
56006;BME280;41888;44.696;10.522;2023-07-28T06:38:59;100315.13;;;20.10;100.00
56006;BME280;41888;44.696;10.522;2023-07-28T06:41:25;100325.41;;;20.18;100.00
56006;BME280;41888;44.696;10.522;2023-07-28T06:43:51;100314.06;;;20.31;100.00
56006;BME280;41888;44.696;10.522;2023-07-28T06:46:17;100321.38;;;20.46;100.00
56006;BME280;41888;44.696;10.522;2023-07-28T06:48:44;100331.88;;;20.57;100.00
56006;BME280;41888;44.696;10.522;2023-07-28T06:51:10;100339.19;;;20.67;100.00
56006;BME280;41888;44.696;10.522;2023-07-28T06:53:36;100337.81;;;20.70;100.00
56006;BME280;41888;44.696;10.522;2023-07-28T06:56:02;100336.72;;;20.76;100.00
56006;BME280;41888;44.696;10.522;2023-07-28T06:58:28;100351.59;;;20.68;100.00
56006;BME280;41888;44.696;10.522;2023-07-28T07:00:55;100355.13;;;20.63;100.00
56006;BME280;41888;44.696;10.522;2023-07-28T07:03:22;100349.72;;;20.53;100.00
56006;BME280;41888;44.696;10.522;2023-07-28T07:05:49;100344.31;;;20.53;100.00
56006;BME280;41888;44.696;10.522;2023-07-28T07:08:16;100347.03;;;20.53;100.00
56006;BME280;41888;44.696;10.522;2023-07-28T07:10:50;100347.53;;;20.71;100.00
56006;BME280;41888;44.696;10.522;2023-07-28T07:13:17;100344.00;;;20.85;100.00
56006;BME280;41888;44.696;10.522;2023-07-28T07:15:43;100342.09;;;20.86;100.00
56006;BME280;41888;44.696;10.522;2023-07-28T07:18:10;100350.41;;;21.04;100.00
56006;BME280;41888;44.696;10.522;2023-07-28T07:20:37;100349.28;;;21.31;100.00
56006;BME280;41888;44.696;10.522;2023-07-28T07:23:04;100343.78;;;21.51;100.00
56006;BME280;41888;44.696;10.522;2023-07-28T07:25:31;100343.66;;;21.71;100.00
56006;BME280;41888;44.696;10.522;2023-07-28T07:27:57;100347.66;;;21.79;97.32
56006;BME280;41888;44.696;10.522;2023-07-28T07:30:23;100347.41;;;21.75;99.90
56006;BME280;41888;44.696;10.522;2023-07-28T07:32:50;100342.81;;;21.76;98.90
56006;BME280;41888;44.696;10.522;2023-07-28T07:35:16;100347.13;;;21.82;97.10
56006;BME280;41888;44.696;10.522;2023-07-28T07:37:42;100339.50;;;21.94;96.65
56006;BME280;41888;44.696;10.522;2023-07-28T07:40:09;100350.03;;;21.96;95.12
56006;BME280;41888;44.696;10.522;2023-07-28T07:42:45;100349.75;;;21.97;92.20
56006;BME280;41888;44.696;10.522;2023-07-28T07:45:13;100355.47;;;21.85;93.42
56006;BME280;41888;44.696;10.522;2023-07-28T07:47:40;100364.66;;;21.89;92.64
56006;BME280;41888;44.696;10.522;2023-07-28T07:50:07;100363.28;;;21.97;94.26
56006;BME280;41888;44.696;10.522;2023-07-28T07:52:37;100359.66;;;22.12;91.88
56006;BME280;41888;44.696;10.522;2023-07-28T07:55:04;100359.84;;;22.25;89.22
56006;BME280;41888;44.696;10.522;2023-07-28T07:57:30;100355.47;;;22.29;89.50
56006;BME280;41888;44.696;10.522;2023-07-28T07:59:58;100363.28;;;22.36;90.66
56006;BME280;41888;44.696;10.522;2023-07-28T08:02:25;100369.66;;;22.79;88.32
56006;BME280;41888;44.696;10.522;2023-07-28T08:04:52;100376.09;;;23.12;87.75
56006;BME280;41888;44.696;10.522;2023-07-28T08:07:20;100385.88;;;23.13;87.21
56006;BME280;41888;44.696;10.522;2023-07-28T08:09:46;100371.91;;;23.67;85.58
56006;BME280;41888;44.696;10.522;2023-07-28T08:12:13;100373.47;;;24.11;81.29
56006;BME280;41888;44.696;10.522;2023-07-28T08:14:40;100372.47;;;24.39;79.63
56006;BME280;41888;44.696;10.522;2023-07-28T08:17:07;100377.97;;;24.53;76.35
56006;BME280;41888;44.696;10.522;2023-07-28T08:19:33;100373.09;;;24.96;76.12
56006;BME280;41888;44.696;10.522;2023-07-28T08:21:59;100388.03;;;25.53;72.36
56006;BME280;41888;44.696;10.522;2023-07-28T08:24:25;100391.88;;;26.01;68.22
56006;BME280;41888;44.696;10.522;2023-07-28T08:26:52;100391.56;;;26.03;66.04
56006;BME280;41888;44.696;10.522;2023-07-28T08:29:18;100385.31;;;25.67;68.61
56006;BME280;41888;44.696;10.522;2023-07-28T08:31:44;100388.41;;;25.87;66.95
56006;BME280;41888;44.696;10.522;2023-07-28T08:34:10;100389.19;;;25.88;64.80
56006;BME280;41888;44.696;10.522;2023-07-28T08:36:36;100391.53;;;26.17;64.91
56006;BME280;41888;44.696;10.522;2023-07-28T08:39:02;100391.66;;;26.12;61.82
56006;BME280;41888;44.696;10.522;2023-07-28T08:41:29;100391.25;;;26.40;63.37
56006;BME280;41888;44.696;10.522;2023-07-28T08:43:55;100390.09;;;26.19;63.98
56006;BME280;41888;44.696;10.522;2023-07-28T08:46:22;100375.81;;;25.78;63.36
56006;BME280;41888;44.696;10.522;2023-07-28T08:48:49;100388.34;;;25.51;64.69
56006;BME280;41888;44.696;10.522;2023-07-28T08:51:15;100381.38;;;25.73;65.63
56006;BME280;41888;44.696;10.522;2023-07-28T08:53:41;100385.72;;;25.74;62.53
56006;BME280;41888;44.696;10.522;2023-07-28T08:56:08;100384.03;;;26.00;62.25
56006;BME280;41888;44.696;10.522;2023-07-28T08:58:34;100391.63;;;26.47;62.96
56006;BME280;41888;44.696;10.522;2023-07-28T09:01:00;100391.81;;;26.82;62.27
56006;BME280;41888;44.696;10.522;2023-07-28T09:03:27;100385.59;;;27.12;62.02
56006;BME280;41888;44.696;10.522;2023-07-28T09:06:01;100376.81;;;27.33;60.93
56006;BME280;41888;44.696;10.522;2023-07-28T09:08:31;100380.38;;;27.50;61.86
56006;BME280;41888;44.696;10.522;2023-07-28T09:11:05;100380.75;;;27.66;60.98
56006;BME280;41888;44.696;10.522;2023-07-28T09:13:37;100386.13;;;27.40;61.26
56006;BME280;41888;44.696;10.522;2023-07-28T09:16:04;100378.31;;;27.56;59.60
56006;BME280;41888;44.696;10.522;2023-07-28T09:18:30;100371.34;;;27.41;59.40
56006;BME280;41888;44.696;10.522;2023-07-28T09:20:56;100379.44;;;27.55;59.03
56006;BME280;41888;44.696;10.522;2023-07-28T09:23:30;100383.47;;;27.66;57.84
56006;BME280;41888;44.696;10.522;2023-07-28T09:26:01;100377.34;;;27.52;57.85
56006;BME280;41888;44.696;10.522;2023-07-28T09:28:42;100378.50;;;27.59;60.73
56006;BME280;41888;44.696;10.522;2023-07-28T09:31:09;100376.44;;;27.65;60.85
56006;BME280;41888;44.696;10.522;2023-07-28T09:33:37;100368.06;;;27.87;59.24
56006;BME280;41888;44.696;10.522;2023-07-28T09:36:12;100366.63;;;27.81;59.84
56006;BME280;41888;44.696;10.522;2023-07-28T09:38:40;100365.66;;;27.86;60.37
56006;BME280;41888;44.696;10.522;2023-07-28T09:41:08;100354.06;;;27.89;59.48
56006;BME280;41888;44.696;10.522;2023-07-28T09:43:37;100345.88;;;27.80;55.48
56006;BME280;41888;44.696;10.522;2023-07-28T09:46:08;100352.47;;;27.79;60.05
56006;BME280;41888;44.696;10.522;2023-07-28T09:48:36;100354.88;;;27.72;57.21
56006;BME280;41888;44.696;10.522;2023-07-28T09:51:08;100355.50;;;27.60;56.76
56006;BME280;41888;44.696;10.522;2023-07-28T09:53:40;100351.63;;;27.61;58.95
56006;BME280;41888;44.696;10.522;2023-07-28T09:56:08;100356.16;;;27.83;60.25
56006;BME280;41888;44.696;10.522;2023-07-28T09:58:38;100357.72;;;27.50;57.96
56006;BME280;41888;44.696;10.522;2023-07-28T10:01:08;100350.81;;;27.61;60.58
56006;BME280;41888;44.696;10.522;2023-07-28T10:03:36;100353.91;;;28.02;59.21
56006;BME280;41888;44.696;10.522;2023-07-28T10:06:03;100354.22;;;28.09;57.70
56006;BME280;41888;44.696;10.522;2023-07-28T10:08:30;100346.03;;;28.27;57.48
56006;BME280;41888;44.696;10.522;2023-07-28T10:10:57;100352.28;;;28.36;56.03
56006;BME280;41888;44.696;10.522;2023-07-28T10:13:23;100350.03;;;28.29;55.10
56006;BME280;41888;44.696;10.522;2023-07-28T10:15:50;100343.44;;;28.39;55.73
56006;BME280;41888;44.696;10.522;2023-07-28T10:18:20;100339.13;;;28.21;54.87
56006;BME280;41888;44.696;10.522;2023-07-28T10:20:48;100325.88;;;28.40;54.55
56006;BME280;41888;44.696;10.522;2023-07-28T10:23:17;100325.56;;;28.41;53.45
56006;BME280;41888;44.696;10.522;2023-07-28T10:25:44;100338.34;;;28.67;52.36
56006;BME280;41888;44.696;10.522;2023-07-28T10:28:34;100340.25;;;28.83;52.10
56006;BME280;41888;44.696;10.522;2023-07-28T10:31:05;100343.66;;;28.72;52.51
56006;BME280;41888;44.696;10.522;2023-07-28T10:33:37;100333.97;;;28.83;48.93
56006;BME280;41888;44.696;10.522;2023-07-28T10:41:26;100324.75;;;28.41;53.42
56006;BME280;41888;44.696;10.522;2023-07-28T10:43:52;100326.50;;;28.54;51.73
56006;BME280;41888;44.696;10.522;2023-07-28T10:46:21;100323.56;;;28.76;51.88
56006;BME280;41888;44.696;10.522;2023-07-28T10:48:49;100331.66;;;29.02;50.38
56006;BME280;41888;44.696;10.522;2023-07-28T10:51:28;100325.88;;;28.95;48.03
56006;BME280;41888;44.696;10.522;2023-07-28T10:53:59;100335.72;;;28.87;47.48
56006;BME280;41888;44.696;10.522;2023-07-28T10:56:26;100325.81;;;28.74;48.39
56006;BME280;41888;44.696;10.522;2023-07-28T10:59:03;100322.09;;;28.70;47.29
56006;BME280;41888;44.696;10.522;2023-07-28T11:01:34;100330.72;;;28.89;48.13
56006;BME280;41888;44.696;10.522;2023-07-28T11:04:27;100327.94;;;28.98;47.95
56006;BME280;41888;44.696;10.522;2023-07-28T11:06:53;100330.88;;;29.22;48.28
56006;BME280;41888;44.696;10.522;2023-07-28T11:09:22;100336.50;;;29.26;47.79
56006;BME280;41888;44.696;10.522;2023-07-28T11:11:50;100336.97;;;29.28;46.73
56006;BME280;41888;44.696;10.522;2023-07-28T11:14:17;100338.91;;;29.27;47.90
56006;BME280;41888;44.696;10.522;2023-07-28T11:16:44;100332.59;;;29.35;49.13
56006;BME280;41888;44.696;10.522;2023-07-28T11:19:12;100331.81;;;29.26;49.09
56006;BME280;41888;44.696;10.522;2023-07-28T11:21:42;100338.56;;;29.58;49.65
56006;BME280;41888;44.696;10.522;2023-07-28T11:24:10;100328.69;;;29.66;48.59
56006;BME280;41888;44.696;10.522;2023-07-28T11:26:37;100324.47;;;29.68;47.88
56006;BME280;41888;44.696;10.522;2023-07-28T11:29:04;100330.16;;;29.63;49.43
56006;BME280;41888;44.696;10.522;2023-07-28T11:31:31;100327.06;;;29.86;49.24
56006;BME280;41888;44.696;10.522;2023-07-28T11:33:59;100323.66;;;29.89;48.86
56006;BME280;41888;44.696;10.522;2023-07-28T11:36:29;100314.81;;;29.83;48.19
56006;BME280;41888;44.696;10.522;2023-07-28T11:38:58;100308.03;;;30.22;48.01
56006;BME280;41888;44.696;10.522;2023-07-28T11:41:26;100305.00;;;29.82;47.33
56006;BME280;41888;44.696;10.522;2023-07-28T11:43:52;100303.81;;;29.71;47.71
56006;BME280;41888;44.696;10.522;2023-07-28T11:46:39;100299.16;;;29.84;47.41
56006;BME280;41888;44.696;10.522;2023-07-28T11:49:12;100297.38;;;30.08;48.16
56006;BME280;41888;44.696;10.522;2023-07-28T11:51:44;100297.28;;;30.17;47.58
56006;BME280;41888;44.696;10.522;2023-07-28T11:54:12;100299.38;;;30.32;46.12
56006;BME280;41888;44.696;10.522;2023-07-28T11:56:46;100292.84;;;30.37;44.81
56006;BME280;41888;44.696;10.522;2023-07-28T11:59:15;100292.59;;;30.50;43.56
56006;BME280;41888;44.696;10.522;2023-07-28T12:04:28;100289.78;;;30.38;44.87
56006;BME280;41888;44.696;10.522;2023-07-28T12:07:16;100296.69;;;30.56;44.09
56006;BME280;41888;44.696;10.522;2023-07-28T12:12:29;100294.06;;;30.72;44.55
56006;BME280;41888;44.696;10.522;2023-07-28T12:14:57;100294.06;;;30.72;44.37
56006;BME280;41888;44.696;10.522;2023-07-28T12:17:30;100283.88;;;30.73;44.26
56006;BME280;41888;44.696;10.522;2023-07-28T12:20:07;100281.84;;;30.70;44.79
56006;BME280;41888;44.696;10.522;2023-07-28T12:22:44;100293.97;;;30.93;43.95
56006;BME280;41888;44.696;10.522;2023-07-28T12:25:11;100279.78;;;30.67;43.37
56006;BME280;41888;44.696;10.522;2023-07-28T12:27:37;100277.38;;;30.89;43.99
56006;BME280;41888;44.696;10.522;2023-07-28T12:30:04;100274.84;;;30.96;43.52
56006;BME280;41888;44.696;10.522;2023-07-28T12:32:31;100280.91;;;31.02;42.84
56006;BME280;41888;44.696;10.522;2023-07-28T12:34:57;100268.22;;;30.97;43.33
56006;BME280;41888;44.696;10.522;2023-07-28T12:37:23;100258.81;;;31.23;43.40
56006;BME280;41888;44.696;10.522;2023-07-28T12:39:49;100258.41;;;31.36;43.01
56006;BME280;41888;44.696;10.522;2023-07-28T12:42:15;100255.00;;;31.27;43.30
56006;BME280;41888;44.696;10.522;2023-07-28T12:44:42;100245.34;;;31.45;42.39
56006;BME280;41888;44.696;10.522;2023-07-28T12:47:09;100245.44;;;31.61;43.55